Time;durP1;ratioP1;P1;durP2;ratioP2;P2;SDS_P1;SDS_P2;PMS_P1;PMS_P2;Temp;Humidity;BMP_temperature;BMP_pressure;BME280_temperature;BME280_humidity;BME280_pressure;Samples;Min_cycle;Max_cycle;Signal;HPM_P1;HPM_P2
2022/12/14 00:01:46;;;;;;;;;;;;;;;;;;5015928;28;19937;-84
2022/12/14 00:04:12;;;;;;;;;;;;;;;;;;5032424;28;19914;-83
2022/12/14 00:06:37;;;;;;;;;;;;;;;;;;5018261;28;19933;-84
2022/12/14 00:09:03;;;;;;;;;;;;;;;;;;5018207;28;19914;-84
2022/12/14 00:11:28;;;;;;;;;;;;;;;;;;5000926;28;19953;-83
2022/12/14 00:13:54;;;;;;;;;;;;;;;;;;5031485;28;19921;-84
2022/12/14 00:16:20;;;;;;;;;;;;;;;;;;5012745;28;20286;-82
2022/12/14 00:18:46;;;;;;;;;;;;;;;;;;5012593;28;19949;-84
2022/12/14 00:21:11;;;;;;;;;;;;;;;;;;5012157;28;19914;-83
2022/12/14 00:23:37;;;;;;;;;;;;;;;;;;5025837;28;19929;-82
2022/12/14 00:26:02;;;;;;;;;;;;;;;;;;5007560;28;20345;-82
2022/12/14 00:28:28;;;;;;;;;;;;;;;;;;5010491;28;19986;-82
2022/12/14 00:30:54;;;;;;;;;;;;;;;;;;5033390;28;20431;-83
2022/12/14 00:33:19;;;;;;;;;;;;;;;;;;5014364;28;19921;-83
2022/12/14 00:35:45;;;;;;;;;;;;;;;;;;5016918;28;19918;-84
2022/12/14 00:38:10;;;;;;;;;;;;;;;;;;5018825;28;19914;-84
2022/12/14 00:40:36;;;;;;;;;;;;;;;;;;5003366;28;19918;-84
2022/12/14 00:43:02;;;;;;;;;;;;;;;;;;5018597;28;19914;-83
2022/12/14 00:45:28;;;;;;;;;;;;;;;;;;5017631;28;19914;-82
2022/12/14 00:47:55;;;;;;;;;;;;;;;;;;5029979;28;19966;-83
2022/12/14 00:50:21;;;;;;;;;;;;;;;;;;5038085;28;19977;-83
2022/12/14 00:52:47;;;;;;;;;;;;;;;;;;5038088;28;19940;-83
2022/12/14 00:55:12;;;;;;;;;;;;;;;;;;5037614;28;19913;-83
2022/12/14 00:57:38;;;;;;;;;;;;;;;;;;5038753;28;19906;-83
2022/12/14 01:00:04;;;;;;;;;;;;;;;;;;5005352;28;19927;-83
2022/12/14 01:02:30;;;;;;;;;;;;;;;;;;5036625;28;19936;-84
2022/12/14 01:04:59;;;;;;;;;;;;;;;;;;5032941;28;19913;-84
2022/12/14 01:07:24;;;;;;;;;;;;;;;;;;5071296;28;19919;-83
2022/12/14 01:09:50;;;;;;;;;;;;;;;;;;5051249;28;19913;-82
2022/12/14 01:12:15;;;;;;;;;;;;;;;;;;5050889;28;19940;-82
2022/12/14 01:14:41;;;;;;;;;;;;;;;;;;5035657;28;19913;-82
2022/12/14 01:17:06;;;;;;;;;;;;;;;;;;5056019;28;19941;-83
2022/12/14 01:19:33;;;;;;;;;;;;;;;;;;5054295;28;19916;-82
2022/12/14 01:21:58;;;;;;;;;;;;;;;;;;5053205;28;19913;-82
2022/12/14 01:24:24;;;;;;;;;;;;;;;;;;5069173;28;19913;-82
2022/12/14 01:26:50;;;;;;;;;;;;;;;;;;5036103;28;19913;-83
2022/12/14 01:29:16;;;;;;;;;;;;;;;;;;5054007;28;19913;-83
2022/12/14 01:31:42;;;;;;;;;;;;;;;;;;5053736;28;19928;-83
2022/12/14 01:34:10;;;;;;;;;;;;;;;;;;5055749;28;19948;-83
2022/12/14 01:36:42;;;;;;;;;;;;;;;;;;5028385;28;19914;-83
2022/12/14 01:39:12;;;;;;;;;;;;;;;;;;4998485;28;20009;-83
2022/12/14 01:41:38;;;;;;;;;;;;;;;;;;5014284;28;19914;-82
2022/12/14 01:44:04;;;;;;;;;;;;;;;;;;5012593;28;19964;-84
2022/12/14 01:46:30;;;;;;;;;;;;;;;;;;5031590;28;19952;-83
2022/12/14 01:48:58;;;;;;;;;;;;;;;;;;5017292;28;19914;-83
2022/12/14 01:51:24;;;;;;;;;;;;;;;;;;5015423;28;19941;-83
2022/12/14 01:53:50;;;;;;;;;;;;;;;;;;5052477;28;19897;-84
2022/12/14 01:56:21;;;;;;;;;;;;;;;;;;5072632;28;19917;-83
2022/12/14 01:58:47;;;;;;;;;;;;;;;;;;5056548;28;19920;-84
2022/12/14 02:01:13;;;;;;;;;;;;;;;;;;5057649;28;19920;-84
2022/12/14 02:03:39;;;;;;;;;;;;;;;;;;5057663;28;19913;-84
2022/12/14 02:06:05;;;;;;;;;;;;;;;;;;5057536;28;19913;-84
2022/12/14 02:08:34;;;;;;;;;;;;;;;;;;5073098;28;19902;-83
2022/12/14 02:11:02;;;;;;;;;;;;;;;;;;5056776;28;19909;-84
2022/12/14 02:13:33;;;;;;;;;;;;;;;;;;5040126;28;19897;-83
2022/12/14 02:16:08;;;;;;;;;;;;;;;;;;5072104;28;19913;-84
2022/12/14 02:18:34;;;;;;;;;;;;;;;;;;5072047;28;19920;-83
2022/12/14 02:21:00;;;;;;;;;;;;;;;;;;5038424;28;19913;-83
2022/12/14 02:23:26;;;;;;;;;;;;;;;;;;5038785;28;20320;-83
2022/12/14 02:25:52;;;;;;;;;;;;;;;;;;5040580;28;20016;-83
2022/12/14 02:28:18;;;;;;;;;;;;;;;;;;5035293;28;19932;-83
2022/12/14 02:30:43;;;;;;;;;;;;;;;;;;5019425;28;19909;-84
2022/12/14 02:36:03;;;;;;;;;;;;;;;;;;4997391;28;19926;-84
2022/12/14 02:38:30;;;;;;;;;;;;;;;;;;4999953;28;19902;-85
2022/12/14 02:41:04;;;;;;;;;;;;;;;;;;4982666;28;19982;-85
2022/12/14 02:43:38;;;;;;;;;;;;;;;;;;4989510;28;19914;-85
2022/12/14 02:49:00;;;;;;;;;;;;;;;;;;4998238;28;19950;-84
2022/12/14 02:51:26;;;;;;;;;;;;;;;;;;5000263;28;19926;-85
2022/12/14 02:53:55;;;;;;;;;;;;;;;;;;5005306;28;20408;-84
2022/12/14 02:56:23;;;;;;;;;;;;;;;;;;5018384;28;19957;-84
2022/12/14 02:58:49;;;;;;;;;;;;;;;;;;5002647;28;20273;-85
2022/12/14 03:01:15;;;;;;;;;;;;;;;;;;5002800;28;19917;-85
2022/12/14 03:03:41;;;;;;;;;;;;;;;;;;4985714;28;20002;-84
2022/12/14 03:06:16;;;;;;;;;;;;;;;;;;5018804;28;19909;-85
2022/12/14 03:08:42;;;;;;;;;;;;;;;;;;5002705;28;19918;-85
2022/12/14 03:11:12;;;;;;;;;;;;;;;;;;5018690;28;19926;-85
2022/12/14 03:13:38;;;;;;;;;;;;;;;;;;5140483;22;20003;-83
2022/12/14 03:16:04;;;;;;;;;;;;;;;;;;5058562;28;19902;-84
2022/12/14 03:18:33;;;;;;;;;;;;;;;;;;5344885;22;19918;-85
2022/12/14 03:21:03;;;;;;;;;;;;;;;;;;5532655;23;19981;-85
2022/12/14 03:23:30;;;;;;;;;;;;;;;;;;5018783;28;19901;-84
2022/12/14 03:26:06;;;;;;;;;;;;;;;;;;5019542;28;19933;-84
2022/12/14 03:28:32;;;;;;;;;;;;;;;;;;4986861;28;19914;-85
2022/12/14 03:31:02;;;;;;;;;;;;;;;;;;5018736;28;19916;-84
2022/12/14 03:33:33;;;;;;;;;;;;;;;;;;5018315;28;19914;-84
2022/12/14 03:38:41;;;;;;;;;;;;;;;;;;5136082;22;19913;-84
2022/12/14 03:41:07;;;;;;;;;;;;;;;;;;5040156;28;19910;-84
2022/12/14 03:43:34;;;;;;;;;;;;;;;;;;5057388;28;20003;-84
2022/12/14 03:46:01;;;;;;;;;;;;;;;;;;5058264;28;19917;-85
2022/12/14 03:48:27;;;;;;;;;;;;;;;;;;5056831;28;19917;-84
2022/12/14 03:50:53;;;;;;;;;;;;;;;;;;5039876;28;19917;-84
2022/12/14 03:53:19;;;;;;;;;;;;;;;;;;5056918;28;19921;-85
2022/12/14 03:55:45;;;;;;;;;;;;;;;;;;5056832;28;19925;-84
2022/12/14 03:58:11;;;;;;;;;;;;;;;;;;5023675;28;19939;-84
2022/12/14 04:00:37;;;;;;;;;;;;;;;;;;5039394;28;19921;-84
2022/12/14 04:03:03;;;;;;;;;;;;;;;;;;5039134;28;19914;-84
2022/12/14 04:05:29;;;;;;;;;;;;;;;;;;5022316;28;20008;-83
2022/12/14 04:07:55;;;;;;;;;;;;;;;;;;5056213;28;19976;-84
2022/12/14 04:21:23;;;;;;;;;;;;;;;;;;5056265;28;19917;-85
2022/12/14 04:26:41;;;;;;;;;;;;;;;;;;5040405;28;19924;-83
2022/12/14 04:31:53;;;;;;;;;;;;;;;;;;5056299;28;19909;-83
2022/12/14 04:34:22;;;;;;;;;;;;;;;;;;5039831;28;19997;-84
2022/12/14 04:36:48;;;;;;;;;;;;;;;;;;5034544;28;19944;-84
2022/12/14 04:39:17;;;;;;;;;;;;;;;;;;5048635;28;19913;-85
2022/12/14 04:41:43;;;;;;;;;;;;;;;;;;5053400;28;19965;-84
2022/12/14 04:44:12;;;;;;;;;;;;;;;;;;5053987;28;19925;-84
2022/12/14 04:46:38;;;;;;;;;;;;;;;;;;5059121;28;19913;-84
2022/12/14 04:49:06;;;;;;;;;;;;;;;;;;5057009;28;19901;-85
2022/12/14 04:51:40;;;;;;;;;;;;;;;;;;5057762;28;19912;-84
2022/12/14 04:54:16;;;;;;;;;;;;;;;;;;5060206;28;19936;-85
2022/12/14 04:56:45;;;;;;;;;;;;;;;;;;5027280;28;19897;-83
2022/12/14 04:59:11;;;;;;;;;;;;;;;;;;5043493;28;19913;-83
2022/12/14 05:01:45;;;;;;;;;;;;;;;;;;5041316;28;19955;-84
2022/12/14 05:04:11;;;;;;;;;;;;;;;;;;5040754;28;19897;-84
2022/12/14 05:06:37;;;;;;;;;;;;;;;;;;5024157;28;19925;-84
2022/12/14 05:09:06;;;;;;;;;;;;;;;;;;5056798;28;19920;-83
2022/12/14 05:11:37;;;;;;;;;;;;;;;;;;5041591;28;19997;-84
2022/12/14 05:14:05;;;;;;;;;;;;;;;;;;5059285;28;19921;-84
2022/12/14 05:16:31;;;;;;;;;;;;;;;;;;5059605;28;19936;-83
2022/12/14 05:18:57;;;;;;;;;;;;;;;;;;5042107;28;19917;-83
2022/12/14 05:24:10;;;;;;;;;;;;;;;;;;5057485;28;19944;-84
2022/12/14 05:26:41;;;;;;;;;;;;;;;;;;5059041;28;19909;-85
2022/12/14 05:29:13;;;;;;;;;;;;;;;;;;5060058;28;19917;-86
2022/12/14 05:31:39;;;;;;;;;;;;;;;;;;5042588;28;19925;-85
2022/12/14 05:34:05;;;;;;;;;;;;;;;;;;5042752;28;20108;-85
2022/12/14 05:36:36;;;;;;;;;;;;;;;;;;5059179;28;19978;-85
2022/12/14 05:39:02;;;;;;;;;;;;;;;;;;5059918;28;19927;-85
2022/12/14 05:41:36;;;;;;;;;;;;;;;;;;5044331;28;19917;-84
2022/12/14 05:44:02;;;;;;;;;;;;;;;;;;5060722;28;19901;-84
2022/12/14 05:46:31;;;;;;;;;;;;;;;;;;5240049;23;19925;-84
2022/12/14 05:49:13;;;;;;;;;;;;;;;;;;5374574;22;19929;-84
2022/12/14 05:51:39;;;;;;;;;;;;;;;;;;5246724;22;19933;-82
2022/12/14 05:56:46;;;;;;;;;;;;;;;;;;4986598;26;19910;-84
2022/12/14 05:59:14;;;;;;;;;;;;;;;;;;5024000;28;19917;-84
2022/12/14 06:01:42;;;;;;;;;;;;;;;;;;5039755;28;19921;-82
2022/12/14 06:04:09;;;;;;;;;;;;;;;;;;5040113;28;19924;-84
2022/12/14 06:06:35;;;;;;;;;;;;;;;;;;5005137;28;19920;-84
2022/12/14 06:09:02;;;;;;;;;;;;;;;;;;5169743;22;19916;-84
2022/12/14 06:11:33;;;;;;;;;;;;;;;;;;5420570;22;19936;-84
2022/12/14 06:14:09;;;;;;;;;;;;;;;;;;5037488;28;19917;-84
2022/12/14 06:16:42;;;;;;;;;;;;;;;;;;5006682;28;19944;-86
2022/12/14 06:19:14;;;;;;;;;;;;;;;;;;5006943;28;19914;-84
2022/12/14 06:21:45;;;;;;;;;;;;;;;;;;5022653;28;19909;-86
2022/12/14 06:24:11;;;;;;;;;;;;;;;;;;5023454;28;19973;-85
2022/12/14 06:26:39;;;;;;;;;;;;;;;;;;5039458;28;19906;-85
2022/12/14 06:29:10;;;;;;;;;;;;;;;;;;5042393;23;19939;-84
2022/12/14 06:31:39;;;;;;;;;;;;;;;;;;5441506;22;19909;-83
2022/12/14 06:34:05;;;;;;;;;;;;;;;;;;5042519;28;19901;-84
2022/12/14 06:36:30;;;;;;;;;;;;;;;;;;5416053;23;19935;-83
2022/12/14 06:41:34;;;;;;;;;;;;;;;;;;5180386;22;19925;-84
2022/12/14 06:44:04;;;;;;;;;;;;;;;;;;5052917;23;19932;-84
2022/12/14 06:46:35;;;;;;;;;;;;;;;;;;5023531;28;19902;-84
2022/12/14 06:49:05;;;;;;;;;;;;;;;;;;5218964;22;19954;-82
2022/12/14 06:57:03;;;;;;;;;;;;;;;;;;5413454;22;19909;-83
2022/12/14 06:59:29;;;;;;;;;;;;;;;;;;5647442;22;19909;-84
2022/12/14 07:04:38;;;;;;;;;;;;;;;;;;5623645;22;19925;-84
2022/12/14 07:07:06;;;;;;;;;;;;;;;;;;5039205;28;19902;-84
2022/12/14 07:09:35;;;;;;;;;;;;;;;;;;5021361;28;19925;-83
2022/12/14 07:12:01;;;;;;;;;;;;;;;;;;5038997;28;19993;-83
2022/12/14 07:14:27;;;;;;;;;;;;;;;;;;5038981;28;19981;-85
2022/12/14 07:16:52;;;;;;;;;;;;;;;;;;5039141;28;19897;-85
2022/12/14 07:19:19;;;;;;;;;;;;;;;;;;5039837;28;19932;-85
2022/12/14 07:21:47;;;;;;;;;;;;;;;;;;5318765;23;19917;-84
2022/12/14 07:24:15;;;;;;;;;;;;;;;;;;5042430;28;19901;-82
2022/12/14 07:26:41;;;;;;;;;;;;;;;;;;5800471;22;19940;-83
2022/12/14 07:31:48;;;;;;;;;;;;;;;;;;5008716;22;2163452;-84
2022/12/14 07:34:16;;;;;;;;;;;;;;;;;;5153446;22;19921;-83
2022/12/14 07:36:44;;;;;;;;;;;;;;;;;;5042601;28;19901;-84
2022/12/14 07:39:12;;;;;;;;;;;;;;;;;;5025969;28;19939;-85
2022/12/14 07:41:38;;;;;;;;;;;;;;;;;;5058954;28;19901;-84
2022/12/14 07:44:04;;;;;;;;;;;;;;;;;;5041215;28;19936;-84
2022/12/14 07:49:04;;;;;;;;;;;;;;;;;;5032360;28;19926;-85
2022/12/14 07:56:53;;;;;;;;;;;;;;;;;;6057373;22;19920;-83
2022/12/14 07:59:19;;;;;;;;;;;;;;;;;;5127185;23;19925;-84
2022/12/14 08:01:44;;;;;;;;;;;;;;;;;;5290970;22;19928;-84
2022/12/14 08:04:13;;;;;;;;;;;;;;;;;;5166958;22;19909;-84
2022/12/14 08:06:38;;;;;;;;;;;;;;;;;;5586710;22;20032;-83
2022/12/14 08:09:14;;;;;;;;;;;;;;;;;;5213338;23;19909;-84
2022/12/14 08:27:37;;;;;;;;;;;;;;;;;;4985135;28;19910;-85
2022/12/14 08:38:14;;;;;;;;;;;;;;;;;;5383137;22;19909;-85
2022/12/14 08:40:40;;;;;;;;;;;;;;;;;;5084265;22;19968;-82
2022/12/14 08:48:29;;;;;;;;;;;;;;;;;;5602367;22;19923;-82
2022/12/14 08:50:55;;;;;;;;;;;;;;;;;;5044925;28;19909;-87
2022/12/14 08:53:21;;;;;;;;;;;;;;;;;;5494132;22;19919;-84
2022/12/14 08:55:52;;;;;;;;;;;;;;;;;;5284277;22;20423;-86
2022/12/14 08:58:21;;;;;;;;;;;;;;;;;;5061882;28;19916;-86
2022/12/14 09:00:52;;;;;;;;;;;;;;;;;;5078031;23;19917;-86
2022/12/14 09:03:18;;;;;;;;;;;;;;;;;;5126965;22;19925;-86
2022/12/14 09:05:44;;;;;;;;;;;;;;;;;;5044481;28;19908;-85
2022/12/14 09:08:09;;;;;;;;;;;;;;;;;;5220375;22;19952;-83
2022/12/14 09:10:35;;;;;;;;;;;;;;;;;;5509752;22;19932;-85
2022/12/14 09:13:01;;;;;;;;;;;;;;;;;;5062065;28;19924;-85
2022/12/14 09:15:27;;;;;;;;;;;;;;;;;;5684806;22;19930;-85
2022/12/14 09:17:53;;;;;;;;;;;;;;;;;;5044692;28;19933;-86
2022/12/14 09:20:23;;;;;;;;;;;;;;;;;;5387075;22;19924;-83
2022/12/14 09:22:48;;;;;;;;;;;;;;;;;;5053670;28;19913;-84
2022/12/14 09:25:14;;;;;;;;;;;;;;;;;;5051528;28;19913;-84
2022/12/14 09:27:40;;;;;;;;;;;;;;;;;;5185478;22;19964;-83
2022/12/14 09:30:08;;;;;;;;;;;;;;;;;;5053471;28;19917;-83
2022/12/14 09:35:22;;;;;;;;;;;;;;;;;;5026440;28;19914;-83
2022/12/14 09:37:50;;;;;;;;;;;;;;;;;;5032905;28;19920;-83
2022/12/14 09:40:16;;;;;;;;;;;;;;;;;;5032187;28;19913;-82
2022/12/14 09:42:41;;;;;;;;;;;;;;;;;;5029895;28;19913;-83
2022/12/14 09:45:07;;;;;;;;;;;;;;;;;;5019242;28;19965;-81
2022/12/14 09:47:32;;;;;;;;;;;;;;;;;;5016548;28;20305;-82
2022/12/14 09:49:58;;;;;;;;;;;;;;;;;;5019208;28;19922;-82
2022/12/14 09:52:23;;;;;;;;;;;;;;;;;;5019198;28;20024;-82
2022/12/14 09:54:49;;;;;;;;;;;;;;;;;;5022301;28;19913;-82
2022/12/14 09:57:15;;;;;;;;;;;;;;;;;;5030394;28;19914;-83
2022/12/14 09:59:40;;;;;;;;;;;;;;;;;;5034533;28;19913;-83
2022/12/14 10:02:06;;;;;;;;;;;;;;;;;;5032876;28;19913;-83
2022/12/14 10:04:31;;;;;;;;;;;;;;;;;;5029643;28;19933;-83
2022/12/14 10:07:00;;;;;;;;;;;;;;;;;;5027864;28;19917;-82
2022/12/14 10:09:32;;;;;;;;;;;;;;;;;;5011820;28;19921;-84
2022/12/14 10:12:15;;;;;;;;;;;;;;;;;;5001071;28;19910;-82
2022/12/14 10:14:44;;;;;;;;;;;;;;;;;;5012499;28;19918;-78
2022/12/14 10:17:10;;;;;;;;;;;;;;;;;;4998155;28;19909;-76
2022/12/14 10:19:35;;;;;;;;;;;;;;;;;;4996942;28;20279;-76
2022/12/14 10:22:00;;;;;;;;;;;;;;;;;;4980449;28;19917;-77
2022/12/14 10:24:26;;;;;;;;;;;;;;;;;;5010011;28;19916;-77
2022/12/14 10:26:51;;;;;;;;;;;;;;;;;;5016816;28;20059;-76
2022/12/14 10:29:17;;;;;;;;;;;;;;;;;;5016004;28;19976;-76
2022/12/14 10:31:43;;;;;;;;;;;;;;;;;;5015404;28;20551;-76
2022/12/14 10:34:08;;;;;;;;;;;;;;;;;;5016080;28;20332;-76
2022/12/14 10:36:34;;;;;;;;;;;;;;;;;;5029887;28;20005;-77
2022/12/14 10:39:00;;;;;;;;;;;;;;;;;;5029802;28;20403;-76
2022/12/14 10:41:26;;;;;;;;;;;;;;;;;;5029908;28;19914;-76
2022/12/14 10:43:51;;;;;;;;;;;;;;;;;;5014021;28;20023;-76
2022/12/14 10:46:17;;;;;;;;;;;;;;;;;;5014095;28;19914;-81
2022/12/14 10:54:17;;;;;;;;;;;;;;;;;;5290291;22;19931;-84
2022/12/14 10:56:43;;;;;;;;;;;;;;;;;;5056466;28;20008;-84
2022/12/14 10:59:08;;;;;;;;;;;;;;;;;;5053641;28;19913;-83
2022/12/14 11:01:34;;;;;;;;;;;;;;;;;;5019601;28;19924;-83
2022/12/14 11:04:02;;;;;;;;;;;;;;;;;;5053103;28;19917;-83
2022/12/14 11:06:27;;;;;;;;;;;;;;;;;;5055430;28;19913;-84
2022/12/14 11:08:56;;;;;;;;;;;;;;;;;;5054601;28;19913;-83
2022/12/14 11:11:22;;;;;;;;;;;;;;;;;;5037638;28;19917;-83
2022/12/14 11:13:50;;;;;;;;;;;;;;;;;;5055442;28;19980;-83
2022/12/14 11:16:16;;;;;;;;;;;;;;;;;;5054349;28;19921;-82
2022/12/14 11:18:41;;;;;;;;;;;;;;;;;;5051360;28;19909;-83
2022/12/14 11:21:07;;;;;;;;;;;;;;;;;;5017488;28;19913;-84
2022/12/14 11:23:33;;;;;;;;;;;;;;;;;;5034119;28;19913;-83
2022/12/14 11:25:59;;;;;;;;;;;;;;;;;;5033679;28;19913;-83
2022/12/14 11:28:24;;;;;;;;;;;;;;;;;;5052187;28;19945;-83
2022/12/14 11:30:51;;;;;;;;;;;;;;;;;;5014385;28;19921;-83
2022/12/14 11:33:16;;;;;;;;;;;;;;;;;;5029214;28;19920;-83
2022/12/14 11:35:42;;;;;;;;;;;;;;;;;;4999133;28;19913;-83
2022/12/14 11:38:07;;;;;;;;;;;;;;;;;;5029618;28;19969;-81
2022/12/14 11:40:33;;;;;;;;;;;;;;;;;;5028966;28;20277;-83
2022/12/14 11:42:58;;;;;;;;;;;;;;;;;;5031600;28;19920;-81
2022/12/14 11:45:26;;;;;;;;;;;;;;;;;;5021665;28;19972;-83
2022/12/14 11:47:53;;;;;;;;;;;;;;;;;;5021979;28;19908;-85
2022/12/14 11:52:55;;;;;;;;;;;;;;;;;;5036968;28;19910;-85
2022/12/14 11:55:23;;;;;;;;;;;;;;;;;;5036887;28;19902;-85
2022/12/14 11:57:49;;;;;;;;;;;;;;;;;;5021264;28;19917;-84
2022/12/14 12:11:07;;;;;;;;;;;;;;;;;;5439238;22;19925;-84
2022/12/14 12:13:33;;;;;;;;;;;;;;;;;;5019459;28;19953;-83
2022/12/14 12:16:01;;;;;;;;;;;;;;;;;;5038385;28;19918;-83
2022/12/14 12:18:27;;;;;;;;;;;;;;;;;;5037429;28;19945;-82
2022/12/14 12:20:52;;;;;;;;;;;;;;;;;;5035558;28;19913;-83
2022/12/14 12:23:18;;;;;;;;;;;;;;;;;;5033635;28;19945;-82
2022/12/14 12:25:46;;;;;;;;;;;;;;;;;;4999562;28;19908;-83
2022/12/14 12:28:12;;;;;;;;;;;;;;;;;;5050320;28;19897;-83
2022/12/14 12:30:39;;;;;;;;;;;;;;;;;;5072055;28;19924;-82
2022/12/14 12:33:09;;;;;;;;;;;;;;;;;;5056193;28;19921;-84
2022/12/14 12:35:37;;;;;;;;;;;;;;;;;;5056054;28;19939;-83
2022/12/14 12:38:12;;;;;;;;;;;;;;;;;;5039624;28;19925;-82
2022/12/14 12:40:38;;;;;;;;;;;;;;;;;;5038711;28;20092;-83
2022/12/14 12:43:06;;;;;;;;;;;;;;;;;;5055371;28;19924;-83
2022/12/14 12:45:32;;;;;;;;;;;;;;;;;;5056732;28;19921;-83
2022/12/14 12:47:57;;;;;;;;;;;;;;;;;;5041403;28;19927;-84
2022/12/14 12:50:26;;;;;;;;;;;;;;;;;;5190285;22;19913;-84
2022/12/14 12:52:53;;;;;;;;;;;;;;;;;;5610103;22;19932;-83
2022/12/14 12:55:21;;;;;;;;;;;;;;;;;;5036736;28;19924;-85
2022/12/14 12:57:52;;;;;;;;;;;;;;;;;;5038064;28;19902;-85
2022/12/14 13:00:21;;;;;;;;;;;;;;;;;;5070014;22;19932;-86
2022/12/14 13:02:47;;;;;;;;;;;;;;;;;;5021134;28;19901;-86
2022/12/14 13:05:15;;;;;;;;;;;;;;;;;;5389876;22;19924;-82
2022/12/14 13:07:44;;;;;;;;;;;;;;;;;;5303944;22;19930;-85
2022/12/14 13:12:53;;;;;;;;;;;;;;;;;;6057122;22;20729;-83
2022/12/14 13:15:27;;;;;;;;;;;;;;;;;;5168281;22;19961;-85
2022/12/14 13:17:58;;;;;;;;;;;;;;;;;;5245042;22;19928;-84
2022/12/14 13:28:44;;;;;;;;;;;;;;;;;;5321570;22;19913;-86
2022/12/14 13:31:15;;;;;;;;;;;;;;;;;;5044076;28;19905;-85
2022/12/14 13:33:45;;;;;;;;;;;;;;;;;;5060661;28;19921;-85
2022/12/14 13:36:11;;;;;;;;;;;;;;;;;;5182219;22;19944;-86
2022/12/14 13:38:41;;;;;;;;;;;;;;;;;;5080780;28;19901;-86
2022/12/14 13:41:10;;;;;;;;;;;;;;;;;;5081023;28;19908;-86
2022/12/14 13:43:36;;;;;;;;;;;;;;;;;;5043710;28;19902;-86
2022/12/14 13:46:01;;;;;;;;;;;;;;;;;;5027659;28;19908;-86
2022/12/14 13:48:32;;;;;;;;;;;;;;;;;;5264324;22;19999;-86
2022/12/14 13:51:03;;;;;;;;;;;;;;;;;;5153135;22;19915;-85
2022/12/14 13:53:34;;;;;;;;;;;;;;;;;;5145157;22;19916;-87
2022/12/14 13:56:00;;;;;;;;;;;;;;;;;;5238499;22;19952;-86
2022/12/14 14:01:07;;;;;;;;;;;;;;;;;;5277573;22;19928;-81
2022/12/14 14:03:37;;;;;;;;;;;;;;;;;;5039447;28;20396;-86
2022/12/14 14:06:03;;;;;;;;;;;;;;;;;;5189490;23;19909;-86
2022/12/14 14:08:29;;;;;;;;;;;;;;;;;;5060169;28;19909;-86
2022/12/14 14:13:41;;;;;;;;;;;;;;;;;;5598836;22;19925;-86
2022/12/14 14:16:09;;;;;;;;;;;;;;;;;;5231636;22;19917;-85
2022/12/14 14:26:44;;;;;;;;;;;;;;;;;;5367364;22;19996;-84
2022/12/14 14:29:10;;;;;;;;;;;;;;;;;;5044547;28;19913;-81
2022/12/14 14:31:35;;;;;;;;;;;;;;;;;;5021918;28;20379;-82
2022/12/14 14:34:00;;;;;;;;;;;;;;;;;;5034086;28;19914;-83
2022/12/14 14:36:26;;;;;;;;;;;;;;;;;;5033229;28;19898;-82
2022/12/14 14:38:51;;;;;;;;;;;;;;;;;;5064360;28;19912;-82
2022/12/14 14:41:16;;;;;;;;;;;;;;;;;;5049951;28;19913;-82
2022/12/14 14:43:42;;;;;;;;;;;;;;;;;;5013538;28;19918;-82
2022/12/14 14:46:07;;;;;;;;;;;;;;;;;;5028843;28;19981;-82
2022/12/14 14:48:33;;;;;;;;;;;;;;;;;;5028400;28;20332;-82
2022/12/14 14:51:01;;;;;;;;;;;;;;;;;;5047016;28;19921;-81
2022/12/14 14:53:27;;;;;;;;;;;;;;;;;;5055355;28;19913;-82
2022/12/14 14:55:55;;;;;;;;;;;;;;;;;;5052166;28;19988;-82
2022/12/14 14:58:21;;;;;;;;;;;;;;;;;;5051296;28;19913;-82
2022/12/14 15:00:46;;;;;;;;;;;;;;;;;;5034176;28;19983;-82
2022/12/14 15:03:12;;;;;;;;;;;;;;;;;;5033007;28;19940;-82
2022/12/14 15:05:37;;;;;;;;;;;;;;;;;;5033518;28;19917;-82
2022/12/14 15:08:05;;;;;;;;;;;;;;;;;;5051345;28;19972;-82
2022/12/14 15:10:34;;;;;;;;;;;;;;;;;;5006397;28;19964;-78
2022/12/14 15:13:00;;;;;;;;;;;;;;;;;;5012512;28;19914;-79
2022/12/14 15:15:25;;;;;;;;;;;;;;;;;;5013817;28;20435;-78
2022/12/14 15:17:51;;;;;;;;;;;;;;;;;;5012873;28;19937;-78
2022/12/14 15:20:16;;;;;;;;;;;;;;;;;;5013071;28;20035;-78
2022/12/14 15:22:42;;;;;;;;;;;;;;;;;;4999220;28;19917;-82
2022/12/14 15:25:08;;;;;;;;;;;;;;;;;;5031869;28;19936;-82
2022/12/14 15:27:36;;;;;;;;;;;;;;;;;;5017778;28;19980;-82
2022/12/14 15:30:02;;;;;;;;;;;;;;;;;;5029893;28;19913;-82
2022/12/14 15:32:28;;;;;;;;;;;;;;;;;;5046752;28;19917;-82
2022/12/14 15:34:54;;;;;;;;;;;;;;;;;;5030217;28;19924;-82
2022/12/14 15:37:19;;;;;;;;;;;;;;;;;;5031660;28;20360;-82
2022/12/14 15:39:44;;;;;;;;;;;;;;;;;;5045189;28;19913;-81
2022/12/14 15:42:10;;;;;;;;;;;;;;;;;;5056036;28;19921;-81
2022/12/14 15:44:35;;;;;;;;;;;;;;;;;;5026114;28;19913;-81
2022/12/14 15:47:01;;;;;;;;;;;;;;;;;;5043847;28;19920;-82
2022/12/14 15:49:27;;;;;;;;;;;;;;;;;;5026314;28;20269;-82
2022/12/14 15:51:52;;;;;;;;;;;;;;;;;;5009965;28;20308;-81
2022/12/14 15:54:17;;;;;;;;;;;;;;;;;;5024126;28;19943;-82
2022/12/14 15:56:43;;;;;;;;;;;;;;;;;;5041970;28;19920;-82
2022/12/14 15:59:09;;;;;;;;;;;;;;;;;;5042560;28;19920;-81
2022/12/14 16:01:34;;;;;;;;;;;;;;;;;;5025204;28;20416;-81
2022/12/14 16:04:18;;;;;;;;;;;;;;;;;;5021737;28;19932;-81
2022/12/14 16:06:43;;;;;;;;;;;;;;;;;;5022027;28;19925;-81
2022/12/14 16:09:09;;;;;;;;;;;;;;;;;;5046508;28;19913;-82
2022/12/14 16:11:34;;;;;;;;;;;;;;;;;;5043069;28;19920;-82
2022/12/14 16:14:00;;;;;;;;;;;;;;;;;;5044683;28;19921;-82
2022/12/14 16:16:25;;;;;;;;;;;;;;;;;;4996615;28;19915;-82
2022/12/14 16:18:51;;;;;;;;;;;;;;;;;;5045900;28;19924;-82
2022/12/14 16:21:16;;;;;;;;;;;;;;;;;;5016661;28;19898;-83
2022/12/14 16:23:42;;;;;;;;;;;;;;;;;;5013092;28;19913;-82
2022/12/14 16:26:07;;;;;;;;;;;;;;;;;;5004189;28;19917;-82
2022/12/14 16:28:33;;;;;;;;;;;;;;;;;;5028331;28;19984;-80
2022/12/14 16:30:59;;;;;;;;;;;;;;;;;;5046151;28;20425;-79
2022/12/14 16:33:24;;;;;;;;;;;;;;;;;;5021202;28;20426;-79
2022/12/14 16:35:50;;;;;;;;;;;;;;;;;;5041782;28;19913;-79
2022/12/14 16:38:15;;;;;;;;;;;;;;;;;;5035572;28;19920;-79
2022/12/14 16:40:41;;;;;;;;;;;;;;;;;;5047976;28;19949;-79
2022/12/14 16:43:06;;;;;;;;;;;;;;;;;;5042503;28;19936;-78
2022/12/14 16:45:31;;;;;;;;;;;;;;;;;;5040769;28;20287;-78
2022/12/14 16:47:57;;;;;;;;;;;;;;;;;;5016333;28;19918;-78
2022/12/14 16:50:22;;;;;;;;;;;;;;;;;;5051299;28;20086;-78
2022/12/14 16:52:48;;;;;;;;;;;;;;;;;;5039406;28;19909;-78
2022/12/14 16:55:13;;;;;;;;;;;;;;;;;;5043777;28;19968;-78
2022/12/14 16:57:38;;;;;;;;;;;;;;;;;;5050297;28;19919;-81
2022/12/14 17:00:04;;;;;;;;;;;;;;;;;;5879813;22;19924;-80
2022/12/14 17:02:34;;;;;;;;;;;;;;;;;;5101547;28;19900;-85
2022/12/14 17:05:06;;;;;;;;;;;;;;;;;;5081368;28;19907;-85
2022/12/14 17:07:38;;;;;;;;;;;;;;;;;;5190348;22;20627;-83
2022/12/14 17:12:52;;;;;;;;;;;;;;;;;;;;;
2022/12/14 17:15:28;;;;;;;;;;;;;;;;;;5055686;28;19927;-83
2022/12/14 17:17:53;;;;;;;;;;;;;;;;;;5037459;28;20372;-82
2022/12/14 17:20:19;;;;;;;;;;;;;;;;;;5025159;28;19914;-82
2022/12/14 17:22:44;;;;;;;;;;;;;;;;;;5029616;28;19920;-81
2022/12/14 17:25:10;;;;;;;;;;;;;;;;;;5050607;28;19936;-83
2022/12/14 17:27:35;;;;;;;;;;;;;;;;;;5039649;28;20435;-84
2022/12/14 17:30:07;;;;;;;;;;;;;;;;;;5056936;28;19897;-84
2022/12/14 17:32:33;;;;;;;;;;;;;;;;;;5040021;28;19901;-83
2022/12/14 17:34:58;;;;;;;;;;;;;;;;;;5059284;28;19927;-84
2022/12/14 17:37:27;;;;;;;;;;;;;;;;;;5057992;28;19917;-83
2022/12/14 17:39:53;;;;;;;;;;;;;;;;;;5043523;28;19913;-84
2022/12/14 17:42:19;;;;;;;;;;;;;;;;;;5043477;28;19921;-83
2022/12/14 17:44:47;;;;;;;;;;;;;;;;;;5043687;28;19901;-84
2022/12/14 17:47:13;;;;;;;;;;;;;;;;;;5059485;28;19948;-84
2022/12/14 17:49:41;;;;;;;;;;;;;;;;;;5059561;28;19935;-84
2022/12/14 17:52:10;;;;;;;;;;;;;;;;;;5058409;28;19947;-84
2022/12/14 17:54:36;;;;;;;;;;;;;;;;;;5059016;28;19913;-84
2022/12/14 17:57:01;;;;;;;;;;;;;;;;;;5059356;28;19920;-85
2022/12/14 17:59:27;;;;;;;;;;;;;;;;;;5058054;28;20510;-84
2022/12/14 18:01:52;;;;;;;;;;;;;;;;;;5059079;28;19927;-84
2022/12/14 18:04:18;;;;;;;;;;;;;;;;;;5058819;28;19936;-84
2022/12/14 18:06:44;;;;;;;;;;;;;;;;;;5042779;28;19901;-84
2022/12/14 18:09:09;;;;;;;;;;;;;;;;;;5059636;28;19901;-84
2022/12/14 18:11:35;;;;;;;;;;;;;;;;;;5058891;28;19921;-84
2022/12/14 18:14:01;;;;;;;;;;;;;;;;;;5059457;28;19905;-84
2022/12/14 18:16:27;;;;;;;;;;;;;;;;;;5059382;28;19905;-85
2022/12/14 18:18:56;;;;;;;;;;;;;;;;;;5324143;22;20040;-84
2022/12/14 18:21:22;;;;;;;;;;;;;;;;;;5006946;28;19949;-84
2022/12/14 18:23:48;;;;;;;;;;;;;;;;;;5039510;28;19918;-84
2022/12/14 18:26:19;;;;;;;;;;;;;;;;;;5038328;28;19961;-83
2022/12/14 18:28:59;;;;;;;;;;;;;;;;;;5088139;22;19937;-81
2022/12/14 18:31:24;;;;;;;;;;;;;;;;;;5036534;28;19917;-81
2022/12/14 18:33:49;;;;;;;;;;;;;;;;;;5006983;28;20402;-81
2022/12/14 18:36:15;;;;;;;;;;;;;;;;;;5035868;28;19913;-81
2022/12/14 18:38:41;;;;;;;;;;;;;;;;;;5028426;28;19936;-81
2022/12/14 18:41:06;;;;;;;;;;;;;;;;;;5038981;28;19913;-80
2022/12/14 18:43:31;;;;;;;;;;;;;;;;;;5036823;28;19920;-82
2022/12/14 18:45:57;;;;;;;;;;;;;;;;;;5024408;28;19980;-81
2022/12/14 18:48:23;;;;;;;;;;;;;;;;;;5039560;28;19913;-81
2022/12/14 18:50:48;;;;;;;;;;;;;;;;;;5033024;28;19947;-81
2022/12/14 18:53:14;;;;;;;;;;;;;;;;;;5012473;28;19913;-81
2022/12/14 18:55:39;;;;;;;;;;;;;;;;;;5010331;28;19922;-81